Latest Weather Observations for Albury

IDV60801

Issued at 8:02 pm EST Wednesday 5 August 2015 (issued every 30 minutes, with the page automatically refreshed every 10 minutes)

About weather observations | Map of weather stations | Latest weather observations for VIC | Other Formats
Station Details ID: 072160 Name: ALBURY AIRPORT AWS Lat: -36.07 Lon: 146.95 Height: 163.5 m
Data from the previous 72 hours. | See also: Recent months at Albury
Date/Time
EST
Temp
°C
App
Temp
°C
Dew
Point
Rel
Hum
%
Delta-T
°C
Wind Press
QNH
hPa
Press
MSL
hPa
Rain
since 9 am
mm
Dir
 
Spd
km/h
Gust
km/h
Spd
kts
Gust
kts
05/08:00pm 7.1 3.0 2.2 71 2.0 WSW 13 17 7 9 1015.2 1015.5 1.4
05/07:30pm 6.8 3.2 2.7 75 1.7 W 11 15 6 8 1014.9 1015.2 1.4
05/07:00pm 7.3 3.8 3.4 76 1.7 W 11 17 6 9 1014.5 1014.8 1.4
05/06:30pm 7.5 4.2 2.6 71 2.1 W 9 13 5 7 1014.1 1014.4 1.4
05/06:00pm 8.6 4.1 2.4 65 2.6 WSW 15 20 8 11 1013.6 1013.9 1.4
05/05:30pm 9.2 4.4 2.8 64 2.8 W 17 24 9 13 1013.2 1013.4 1.4
05/05:00pm 9.7 4.0 3.0 63 2.9 WSW 22 30 12 16 1012.8 1013.0 1.4
05/04:30pm 10.3 5.3 4.5 67 2.6 W 20 33 11 18 1012.4 1012.6 1.4
05/04:00pm 11.2 7.3 5.3 67 2.7 W 15 24 8 13 1012.1 1012.3 1.4
05/03:30pm 10.8 4.2 4.3 64 2.9 W 28 37 15 20 1011.9 1012.1 1.4
05/03:00pm 10.9 5.8 5.9 71 2.3 W 22 35 12 19 1012.0 1012.2 1.4
05/02:30pm 11.0 6.7 6.9 76 2.0 W 19 24 10 13 1011.8 1012.0 1.4
05/02:00pm 10.2 7.9 7.4 83 1.3 NW 9 17 5 9 1012.0 1012.2 1.4
05/01:30pm 7.8 4.1 6.4 91 0.6 W 15 19 8 10 1012.2 1012.4 1.4
05/01:18pm 7.7 2.5 5.7 87 0.9 SW 22 30 12 16 1012.4 1012.6 1.2
05/01:06pm 8.2 2.4 6.2 87 0.9 WSW 26 33 14 18 1012.2 1012.4 0.8
05/01:00pm 9.7 4.0 6.8 82 1.4 W 26 33 14 18 1012.1 1012.3 0.4
05/12:30pm 9.8 3.8 7.1 83 1.3 W 28 35 15 19 1012.2 1012.4 0.4
05/12:14pm 9.2 2.4 7.0 86 1.0 W 32 41 17 22 1012.4 1012.6 0.4
05/12:00pm 9.6 3.7 7.4 86 1.1 W 28 41 15 22 1012.7 1012.9 0.4
05/11:47am 9.0 3.0 7.0 87 0.9 W 28 46 15 25 1012.9 1013.1 0.4
05/11:37am 9.1 3.7 8.0 93 0.5 WNW 26 35 14 19 1013.1 1013.3 0.4
05/11:30am 8.7 3.2 7.6 93 0.5 WNW 26 35 14 19 1013.1 1013.3 0.4
05/11:00am 8.4 4.0 7.6 95 0.4 WNW 20 30 11 16 1013.5 1013.7 0.2
05/10:38am 8.1 2.8 7.0 93 0.5 WNW 24 32 13 17 1013.6 1013.9 0.2
05/10:30am 8.0 3.1 6.9 93 0.5 WNW 22 32 12 17 1013.6 1013.9 0.2
05/10:04am 7.5 2.5 6.6 94 0.4 NW 22 32 12 17 1013.6 1013.9 0.2
05/10:00am 7.6 2.7 6.7 94 0.4 NW 22 32 12 17 1013.7 1014.0 0.2
05/09:30am 7.4 2.8 6.7 95 0.3 WNW 20 30 11 16 1013.8 1014.1 0.0
05/09:00am 7.2 1.8 6.3 94 0.4 WNW 24 32 13 17 1013.9 1014.2 4.2
05/08:52am 7.2 2.1 6.1 93 0.5 WNW 22 35 12 19 1013.8 1014.1 4.2
05/08:48am 7.3 1.9 6.2 93 0.5 WNW 24 35 13 19 1013.8 1014.1 4.2
05/08:35am 7.2 1.7 6.1 93 0.5 WNW 24 32 13 17 1013.8 1014.1 4.2
05/08:30am 7.1 1.6 6.0 93 0.5 WNW 24 32 13 17 1013.8 1014.1 4.2
05/08:27am 7.1 1.6 6.0 93 0.5 WNW 24 33 13 18 1013.8 1014.1 4.2
05/08:00am 6.9 2.1 5.8 93 0.5 WNW 20 32 11 17 1013.9 1014.2 4.2
05/07:52am 6.9 1.4 5.7 92 0.5 WNW 24 32 13 17 1014.0 1014.3 4.2
05/07:30am 7.1 2.3 5.6 90 0.7 WNW 20 32 11 17 1013.9 1014.2 4.2
05/07:00am 6.8 1.6 5.7 93 0.5 NW 22 33 12 18 1014.0 1014.3 4.2
05/06:58am 6.8 1.3 5.7 93 0.5 NW 24 33 13 18 1014.0 1014.3 4.2
05/06:37am 6.8 1.3 5.9 94 0.4 WNW 24 37 13 20 1014.0 1014.3 4.2
05/06:31am 6.8 1.7 5.9 94 0.4 WNW 22 33 12 18 1014.1 1014.4 4.2
05/06:30am 6.8 1.7 5.9 94 0.4 WNW 22 33 12 18 1014.2 1014.5 4.2
05/06:00am 6.5 2.0 5.9 96 0.3 NNW 19 24 10 13 1014.2 1014.5 4.0
05/05:30am 6.2 1.6 5.6 96 0.3 NW 19 26 10 14 1014.5 1014.8 3.6
05/05:00am 6.0 1.2 5.4 96 0.3 NNW 20 28 11 15 1014.6 1014.9 3.2
05/04:42am 5.9 1.2 5.0 94 0.4 NNW 19 26 10 14 1014.8 1015.1 2.8
05/04:33am 6.0 1.6 5.0 93 0.4 NNW 17 24 9 13 1014.8 1015.1 2.6
05/04:31am 6.0 1.6 5.0 93 0.4 NNW 17 24 9 13 1014.9 1015.2 2.6
05/04:30am 6.0 1.6 5.0 93 0.4 NW 17 24 9 13 1014.9 1015.2 2.6
05/04:00am 6.0 1.6 4.8 92 0.5 NNW 17 26 9 14 1015.1 1015.4 2.4
05/03:45am 5.9 2.3 4.9 93 0.4 NNW 13 19 7 10 1015.4 1015.7 2.4
05/03:35am 5.8 2.5 4.8 93 0.4 NNW 11 17 6 9 1015.5 1015.8 2.4
05/03:30am 5.9 2.3 4.9 93 0.4 NNW 13 19 7 10 1015.6 1015.9 2.4
05/03:00am 5.6 3.1 4.7 94 0.4 N 7 11 4 6 1016.4 1016.6 2.2
05/02:30am 5.4 2.9 4.5 94 0.4 ENE 7 11 4 6 1017.1 1017.3 1.6
05/02:00am 5.2 3.6 4.3 94 0.4 NNW 2 7 1 4 1017.5 1017.7 1.2
05/01:30am 5.1 2.1 4.2 94 0.4 NNE 9 11 5 6 1018.0 1018.2 0.8
05/01:20am 5.2 2.6 4.2 93 0.4 N 7 13 4 7 1018.2 1018.4 0.8
05/01:00am 5.2 1.4 3.9 91 0.6 NNW 13 17 7 9 1018.6 1018.8 0.2
05/12:55am 5.3 1.4 3.6 89 0.7 NNW 13 19 7 10 1018.5 1018.7 0.2
05/12:53am 5.3 1.4 3.5 88 0.8 NNW 13 19 7 10 1018.5 1018.7 0.2
05/12:30am 5.6 2.0 2.9 83 1.1 NNW 11 15 6 8 1018.7 1019.0 0.0
05/12:00am 5.8 2.5 2.6 80 1.3 NNW 9 17 5 9 1019.2 1019.5 0.0
 
Date/Time
EST
Temp
°C
App
Temp
°C
Dew
Point
Rel
Hum
%
Delta-T
°C
Wind Press
QNH
hPa
Press
MSL
hPa
Rain
since 9 am
mm
Dir
 
Spd
km/h
Gust
km/h
Spd
kts
Gust
kts
04/11:30pm 5.3 3.3 2.5 82 1.1 ENE 2 6 1 3 1019.4 1019.7 0.0
04/11:00pm 5.4 3.3 1.9 78 1.4 N 2 7 1 4 1019.6 1019.9 0.0
04/10:30pm 5.4 2.6 1.9 78 1.4 NNE 6 11 3 6 1019.7 1020.0 0.0
04/10:00pm 5.1 3.1 2.1 81 1.2 ESE 2 7 1 4 1020.4 1020.7 0.0
04/09:30pm 5.8 4.0 1.2 72 1.8 CALM 0 0 0 0 1020.7 1021.0 0.0
04/09:00pm 6.1 3.1 0.6 68 2.2 NW 6 7 3 4 1020.8 1021.1 0.0
04/08:30pm 6.1 2.8 0.4 67 2.2 NNW 7 9 4 5 1021.1 1021.4 0.0
04/08:00pm 6.2 2.6 0.5 67 2.2 NW 9 11 5 6 1021.3 1021.6 0.0
04/07:30pm 6.1 3.0 0.4 67 2.2 NW 6 7 3 4 1021.4 1021.7 0.0
04/07:00pm 6.2 2.9 -0.1 64 2.4 WNW 7 11 4 6 1021.3 1021.6 0.0
04/06:30pm 6.4 2.7 0.1 64 2.5 NNW 9 13 5 7 1021.2 1021.5 0.0
04/06:00pm 6.3 2.6 0.2 65 2.4 NW 9 11 5 6 1021.3 1021.6 0.0
04/05:30pm 6.5 2.4 -0.2 62 2.6 WNW 11 19 6 10 1021.2 1021.5 0.0
04/05:00pm 6.8 1.9 -0.2 61 2.7 WNW 15 20 8 11 1021.4 1021.7 0.0
04/04:30pm 7.0 1.3 -0.4 59 2.9 W 19 26 10 14 1021.4 1021.7 0.0
04/04:00pm 7.2 2.7 0.0 60 2.8 WNW 13 19 7 10 1021.4 1021.7 0.0
04/03:30pm 7.4 1.7 -0.8 56 3.2 W 19 30 10 16 1021.5 1021.8 0.0
04/03:00pm 7.7 2.0 -0.8 55 3.3 WNW 19 24 10 13 1021.6 1021.9 0.0
04/02:30pm 7.7 1.6 -2.0 50 3.7 W 20 24 11 13 1021.5 1021.8 0.0
04/02:00pm 7.9 2.2 -1.1 53 3.5 W 19 24 10 13 1021.7 1022.0 0.0
04/01:30pm 7.6 3.1 -0.4 57 3.1 WNW 13 19 7 10 1022.2 1022.4 0.0
04/01:00pm 7.4 2.3 0.6 62 2.7 WNW 17 24 9 13 1022.5 1022.7 0.0
04/12:30pm 7.6 1.9 -1.1 54 3.3 W 19 26 10 14 1022.8 1023.0 0.0
04/12:00pm 8.4 4.5 0.9 59 3.0 W 11 20 6 11 1023.4 1023.6 0.0
04/11:30am 7.5 4.0 1.1 64 2.6 NNW 9 15 5 8 1023.9 1024.2 0.0
04/11:00am 7.1 4.1 1.0 65 2.4 NNW 6 7 3 4 1024.3 1024.6 0.0
04/10:30am 5.6 2.9 0.4 69 2.0 ENE 4 7 2 4 1024.5 1024.8 0.0
04/10:00am 4.0 1.3 0.3 77 1.4 ENE 4 6 2 3 1024.7 1025.0 0.0
04/09:30am 3.3 0.9 -0.2 78 1.3 E 2 7 1 4 1024.7 1025.0 0.0
04/09:00am 2.5 -0.6 0.2 85 0.9 ENE 6 9 3 5 1024.8 1025.1 1.4
04/08:30am 1.0 -2.2 -0.5 90 0.5 ENE 6 9 3 5 1024.8 1025.1 1.4
04/08:00am -0.2 -3.1 -0.8 96 0.2 NNW 4 7 2 4 1024.7 1025.0 1.4
04/07:30am -1.6 -5.0 -2.2 96 0.1 N 6 9 3 5 1024.4 1024.7 1.4
04/07:00am -2.2 -4.6 -2.9 95 0.1 CALM 0 0 0 0 1024.3 1024.6 1.4
04/06:30am -1.9 -4.2 -2.3 97 0.1 CALM 0 7 0 4 1024.1 1024.4 1.4
04/06:00am -1.9 -4.2 -2.5 96 0.1 CALM 0 0 0 0 1023.8 1024.1 1.4
04/05:30am -2.2 -4.6 -3.0 94 0.2 CALM 0 0 0 0 1023.6 1023.8 1.4
04/05:00am -1.7 -4.4 -2.4 95 0.2 NE 2 7 1 4 1023.5 1023.7 1.4
04/04:30am -1.8 -4.1 -2.5 95 0.2 CALM 0 0 0 0 1023.5 1023.7 1.4
04/04:00am -1.2 -3.4 -1.9 95 0.2 CALM 0 0 0 0 1023.3 1023.5 1.4
04/03:30am -1.0 -3.2 -1.7 95 0.2 CALM 0 0 0 0 1023.4 1023.6 1.4
04/03:00am -0.5 -2.6 -1.1 96 0.2 CALM 0 0 0 0 1023.5 1023.7 1.4
04/02:30am -0.8 -3.0 -1.8 93 0.3 CALM 0 0 0 0 1023.5 1023.7 1.4
04/02:00am -0.1 -2.3 -1.2 92 0.4 CALM 0 0 0 0 1023.6 1023.8 1.4
04/01:30am 0.6 -1.5 -0.8 90 0.5 CALM 0 0 0 0 1023.5 1023.7 1.4
04/01:00am 1.0 -1.5 -0.8 88 0.6 NNW 2 7 1 4 1023.4 1023.6 1.4
04/12:30am 1.0 -1.5 -1.2 85 0.8 E 2 6 1 3 1023.5 1023.7 1.4
04/12:00am 2.2 -1.2 -0.5 82 1.0 ENE 7 11 4 6 1023.5 1023.7 1.4
 
Date/Time
EST
Temp
°C
App
Temp
°C
Dew
Point
Rel
Hum
%
Delta-T
°C
Wind Press
QNH
hPa
Press
MSL
hPa
Rain
since 9 am
mm
Dir
 
Spd
km/h
Gust
km/h
Spd
kts
Gust
kts
03/11:30pm 2.0 -0.1 -0.9 81 1.1 CALM 0 0 0 0 1023.3 1023.5 1.4
03/11:00pm 2.4 -1.4 -0.5 81 1.1 W 9 11 5 6 1023.2 1023.4 1.4
03/10:30pm 3.0 -0.4 -0.3 79 1.2 ESE 7 9 4 5 1023.3 1023.5 1.4
03/10:00pm 2.1 -2.1 -0.6 82 1.0 W 11 13 6 7 1023.1 1023.3 1.4
03/09:30pm 2.3 -2.2 -0.4 82 1.0 W 13 15 7 8 1023.2 1023.4 1.4
03/09:00pm 3.2 -0.6 -0.6 76 1.4 WSW 9 11 5 6 1023.0 1023.2 1.4
03/08:30pm 3.1 -0.7 -0.9 75 1.5 W 9 11 5 6 1022.9 1023.1 1.4
03/08:00pm 4.4 0.7 -0.2 72 1.7 W 9 11 5 6 1022.7 1022.9 1.4
03/07:30pm 6.7 2.1 -1.2 57 3.0 SW 13 17 7 9 1022.5 1022.7 1.4
03/07:00pm 6.5 1.9 -1.4 57 3.0 WSW 13 20 7 11 1022.0 1022.3 1.4
03/06:30pm 6.4 2.1 -1.5 57 3.0 SW 11 15 6 8 1021.5 1021.8 1.4
03/06:00pm 7.3 2.2 -1.6 53 3.4 WSW 15 20 8 11 1020.8 1021.1 1.4
03/05:30pm 8.4 2.9 -2.0 48 4.0 SW 17 26 9 14 1020.3 1020.6 1.4
03/05:00pm 9.2 3.1 -2.7 43 4.5 SW 20 33 11 18 1019.9 1020.2 1.4
03/04:30pm 9.8 3.3 -2.8 41 4.8 SW 22 37 12 20 1019.6 1019.9 1.4
03/04:00pm 10.2 3.4 -1.8 43 4.7 WSW 24 39 13 21 1019.2 1019.5 1.4
03/03:30pm 10.5 3.0 -1.5 43 4.7 WSW 28 41 15 22 1019.1 1019.4 1.4
03/03:00pm 11.0 4.3 1.3 51 4.1 WSW 26 37 14 20 1018.4 1018.6 1.4
03/02:50pm 10.8 3.5 0.2 48 4.4 WSW 28 46 15 25 1018.2 1018.4 1.4
03/02:30pm 10.8 3.3 1.1 51 4.1 WSW 30 41 16 22 1017.9 1018.1 1.4
03/02:00pm 10.7 3.2 1.5 53 3.9 WSW 30 43 16 23 1017.8 1018.0 1.4
03/01:30pm 10.8 2.8 1.6 53 3.9 WSW 33 46 18 25 1017.9 1018.1 1.4
03/01:00pm 10.6 2.3 2.2 56 3.6 WSW 35 48 19 26 1017.7 1017.9 1.4
03/12:47pm 10.3 2.7 3.1 61 3.1 WSW 32 50 17 27 1017.4 1017.6 1.4
03/12:30pm 10.5 4.8 4.9 68 2.6 SW 24 35 13 19 1017.3 1017.5 1.4
03/12:00pm 10.5 3.1 4.0 64 2.9 W 32 46 17 25 1017.3 1017.5 1.4
03/11:30am 10.3 3.1 5.1 70 2.4 W 32 43 17 23 1017.5 1017.7 1.4
03/11:18am 10.0 2.9 5.4 73 2.1 W 32 50 17 27 1017.6 1017.8 1.4
03/11:00am 10.4 4.9 7.5 82 1.4 W 26 35 14 19 1017.9 1018.1 1.4
03/10:58am 10.1 4.5 7.2 82 1.4 W 26 43 14 23 1018.0 1018.2 1.4
03/10:45am 9.3 4.8 7.1 86 1.0 W 20 33 11 18 1017.9 1018.1 1.4
03/10:44am 9.2 4.8 7.5 89 0.8 W 20 26 11 14 1017.9 1018.1 1.4
03/10:39am 9.1 4.5 8.0 93 0.5 WNW 22 30 12 16 1018.0 1018.2 1.4
03/10:30am 8.1 2.8 6.7 91 0.7 W 24 32 13 17 1018.0 1018.2 1.4
03/10:06am 8.4 1.9 6.5 88 0.9 WNW 30 41 16 22 1018.0 1018.2 0.0
03/10:00am 8.9 3.0 6.0 82 1.3 WNW 26 37 14 20 1017.9 1018.1 0.0
03/09:38am 8.8 2.6 6.2 84 1.2 WNW 28 46 15 25 1017.6 1017.8 0.0
03/09:30am 8.7 2.5 6.0 83 1.2 WNW 28 43 15 23 1017.5 1017.7 0.0
03/09:00am 8.3 2.4 5.9 85 1.1 WNW 26 37 14 20 1017.5 1017.7 2.6
03/08:43am 8.3 2.4 5.9 85 1.1 WNW 26 35 14 19 1017.4 1017.6 2.6
03/08:30am 8.4 3.3 6.0 85 1.1 WNW 22 32 12 17 1017.5 1017.7 2.6
03/08:21am 8.1 2.6 5.9 86 1.0 WNW 24 33 13 18 1017.4 1017.6 2.6
03/08:20am 8.1 2.6 5.9 86 1.0 WNW 24 33 13 18 1017.3 1017.5 2.6
03/08:09am 8.0 2.5 5.8 86 1.0 WNW 24 35 13 19 1017.2 1017.4 2.6
03/08:00am 8.0 2.1 6.0 87 0.9 WNW 26 39 14 21 1017.1 1017.3 2.6
03/07:30am 7.8 1.5 5.8 87 0.9 WNW 28 41 15 22 1016.9 1017.1 2.6
03/07:02am 7.8 2.4 6.3 90 0.7 WNW 24 33 13 18 1016.8 1017.0 2.6
03/07:00am 7.7 2.3 6.3 91 0.6 WNW 24 33 13 18 1016.8 1017.0 2.4
03/06:30am 7.9 2.8 6.0 88 0.9 WNW 22 32 12 17 1016.7 1016.9 2.4
03/06:07am 8.0 2.9 6.0 87 0.9 NW 22 32 12 17 1016.6 1016.8 2.4
03/06:00am 8.0 2.9 6.0 87 0.9 NW 22 33 12 18 1016.5 1016.7 2.4
03/05:42am 8.1 2.2 5.9 86 1.0 NW 26 39 14 21 1016.4 1016.6 2.4
03/05:30am 8.1 3.4 6.1 87 0.9 WNW 20 30 11 16 1016.4 1016.6 2.4
03/05:20am 8.1 3.4 6.2 88 0.9 WNW 20 28 11 15 1016.4 1016.6 2.4
03/05:00am 8.2 3.7 6.0 86 1.0 NW 19 32 10 17 1016.4 1016.6 2.4
03/04:30am 8.0 3.4 5.8 86 1.0 NW 19 26 10 14 1016.4 1016.6 2.4
03/04:00am 8.0 3.2 5.6 85 1.1 NW 20 28 11 15 1016.4 1016.6 2.4
03/03:30am 8.1 3.6 5.9 86 1.0 NW 19 26 10 14 1016.4 1016.6 2.4
03/03:23am 8.3 4.2 6.1 86 1.0 NW 17 28 9 15 1016.5 1016.7 2.4
03/03:07am 8.4 3.8 6.5 88 0.9 WNW 20 35 11 19 1016.6 1016.8 2.4
03/03:00am 8.3 3.4 6.8 90 0.7 NW 22 28 12 15 1016.8 1017.0 2.4
03/02:49am 8.5 3.2 6.6 88 0.9 NW 24 35 13 19 1016.9 1017.1 2.2
03/02:30am 8.7 4.7 6.5 86 1.0 NNW 17 24 9 13 1016.9 1017.1 2.2
03/02:27am 8.6 5.0 6.7 88 0.9 NNW 15 24 8 13 1017.0 1017.2 2.2
03/02:15am 8.6 5.0 6.7 88 0.9 NNW 15 19 8 10 1017.0 1017.2 2.2
03/02:00am 9.3 5.2 6.2 81 1.4 NW 17 24 9 13 1017.1 1017.3 2.2
03/01:30am 9.0 4.9 6.1 82 1.3 NW 17 28 9 15 1017.3 1017.5 2.2
03/01:00am 8.7 6.1 6.2 84 1.2 NW 9 17 5 9 1017.3 1017.5 2.2
03/12:30am 8.5 4.7 6.0 84 1.1 NW 15 19 8 10 1017.4 1017.6 2.2
03/12:00am 8.9 4.4 6.3 84 1.2 NW 19 28 10 15 1017.6 1017.8 2.2
 
Date/Time
EST
Temp
°C
App
Temp
°C
Dew
Point
Rel
Hum
%
Delta-T
°C
Wind Press
QNH
hPa
Press
MSL
hPa
Rain
since 9 am
mm
Dir
 
Spd
km/h
Gust
km/h
Spd
kts
Gust
kts
02/11:30pm 9.5 4.0 5.9 78 1.7 NW 24 35 13 19 1017.6 1017.8 2.2
02/11:00pm 9.8 4.9 5.2 73 2.1 NNW 20 33 11 18 1017.7 1017.9 2.2
02/10:30pm 9.6 4.9 5.2 74 2.0 NNW 19 24 10 13 1017.7 1017.9 2.2
02/10:00pm 9.3 5.4 5.3 76 1.8 NNW 15 20 8 11 1017.8 1018.0 2.2
02/09:30pm 9.2 5.2 5.0 75 1.9 NNW 15 20 8 11 1017.5 1017.7 2.2
02/09:00pm 9.2 4.8 5.0 75 1.9 NNW 17 22 9 12 1017.4 1017.6 2.2
02/08:30pm 9.0 5.4 5.0 76 1.8 N 13 20 7 11 1017.1 1017.3 2.2

Other Formats:

Comma delimited format used in spreadsheet applications
http://www.bom.gov.au/fwo/IDV60801/IDV60801.95896.axf

JavaScript Object Notation format (JSON) in row-major order
http://www.bom.gov.au/fwo/IDV60801/IDV60801.95896.json